sensor_id;sensor_type;location;lat;lon;timestamp;temperature;humidity
298;DHT22;133;49.626;9.680;2023-06-26T00:01:38;19.30;82.60
298;DHT22;133;49.626;9.680;2023-06-26T00:04:05;19.30;82.70
298;DHT22;133;49.626;9.680;2023-06-26T00:06:31;19.20;83.00
298;DHT22;133;49.626;9.680;2023-06-26T00:08:57;19.20;83.20
298;DHT22;133;49.626;9.680;2023-06-26T00:11:24;19.10;83.50
298;DHT22;133;49.626;9.680;2023-06-26T00:13:50;19.10;83.30
298;DHT22;133;49.626;9.680;2023-06-26T00:16:16;19.10;83.20
298;DHT22;133;49.626;9.680;2023-06-26T00:18:41;19.10;83.00
298;DHT22;133;49.626;9.680;2023-06-26T00:21:07;19.10;83.30
298;DHT22;133;49.626;9.680;2023-06-26T00:23:32;19.00;83.70
298;DHT22;133;49.626;9.680;2023-06-26T00:26:03;19.00;84.00
298;DHT22;133;49.626;9.680;2023-06-26T00:28:29;18.80;84.30
298;DHT22;133;49.626;9.680;2023-06-26T00:30:54;18.80;84.50
298;DHT22;133;49.626;9.680;2023-06-26T00:33:20;18.80;84.50
298;DHT22;133;49.626;9.680;2023-06-26T00:35:46;18.70;84.90
298;DHT22;133;49.626;9.680;2023-06-26T00:38:11;18.70;85.40
298;DHT22;133;49.626;9.680;2023-06-26T00:40:37;18.60;85.70
298;DHT22;133;49.626;9.680;2023-06-26T00:43:02;18.60;85.50
298;DHT22;133;49.626;9.680;2023-06-26T00:45:28;18.60;85.60
298;DHT22;133;49.626;9.680;2023-06-26T00:47:54;18.60;85.90
298;DHT22;133;49.626;9.680;2023-06-26T00:50:20;18.60;86.00
298;DHT22;133;49.626;9.680;2023-06-26T00:52:46;18.60;85.70
298;DHT22;133;49.626;9.680;2023-06-26T00:55:12;18.50;86.50
298;DHT22;133;49.626;9.680;2023-06-26T00:57:38;18.50;86.80
298;DHT22;133;49.626;9.680;2023-06-26T01:00:04;18.50;86.70
298;DHT22;133;49.626;9.680;2023-06-26T01:02:30;18.50;86.90
298;DHT22;133;49.626;9.680;2023-06-26T01:05:02;18.40;86.90
298;DHT22;133;49.626;9.680;2023-06-26T01:07:32;18.40;86.70
298;DHT22;133;49.626;9.680;2023-06-26T01:10:03;18.40;86.50
298;DHT22;133;49.626;9.680;2023-06-26T01:12:30;18.40;86.80
298;DHT22;133;49.626;9.680;2023-06-26T01:14:55;18.30;86.40
298;DHT22;133;49.626;9.680;2023-06-26T01:17:21;18.30;86.30
298;DHT22;133;49.626;9.680;2023-06-26T01:19:48;18.20;86.60
298;DHT22;133;49.626;9.680;2023-06-26T01:22:27;18.10;87.10
298;DHT22;133;49.626;9.680;2023-06-26T01:25:18;18.10;87.20
298;DHT22;133;49.626;9.680;2023-06-26T01:27:48;18.00;87.40
298;DHT22;133;49.626;9.680;2023-06-26T01:30:15;18.00;87.50
298;DHT22;133;49.626;9.680;2023-06-26T01:32:42;18.00;87.80
298;DHT22;133;49.626;9.680;2023-06-26T01:35:08;18.00;87.80
298;DHT22;133;49.626;9.680;2023-06-26T01:37:34;18.00;87.80
298;DHT22;133;49.626;9.680;2023-06-26T01:40:00;18.00;88.20
298;DHT22;133;49.626;9.680;2023-06-26T01:42:26;17.90;88.10
298;DHT22;133;49.626;9.680;2023-06-26T01:44:55;17.90;88.20
298;DHT22;133;49.626;9.680;2023-06-26T01:47:25;17.80;88.60
298;DHT22;133;49.626;9.680;2023-06-26T01:50:02;17.90;88.70
298;DHT22;133;49.626;9.680;2023-06-26T01:52:52;17.80;88.90
298;DHT22;133;49.626;9.680;2023-06-26T01:55:44;17.80;89.50
298;DHT22;133;49.626;9.680;2023-06-26T01:58:13;17.70;89.60
298;DHT22;133;49.626;9.680;2023-06-26T02:00:40;17.80;89.10
298;DHT22;133;49.626;9.680;2023-06-26T02:03:05;17.80;89.00
298;DHT22;133;49.626;9.680;2023-06-26T02:05:32;17.70;88.80
298;DHT22;133;49.626;9.680;2023-06-26T02:07:58;17.70;89.00
298;DHT22;133;49.626;9.680;2023-06-26T02:10:24;17.60;89.20
298;DHT22;133;49.626;9.680;2023-06-26T02:12:49;17.60;89.40
298;DHT22;133;49.626;9.680;2023-06-26T02:15:15;17.50;89.40
298;DHT22;133;49.626;9.680;2023-06-26T02:17:40;17.50;89.60
298;DHT22;133;49.626;9.680;2023-06-26T02:20:06;17.50;89.90
298;DHT22;133;49.626;9.680;2023-06-26T02:22:33;17.50;89.80
298;DHT22;133;49.626;9.680;2023-06-26T02:24:59;17.60;89.70
298;DHT22;133;49.626;9.680;2023-06-26T02:27:24;17.60;89.50
298;DHT22;133;49.626;9.680;2023-06-26T02:29:50;17.50;89.60
298;DHT22;133;49.626;9.680;2023-06-26T02:32:16;17.50;89.50
298;DHT22;133;49.626;9.680;2023-06-26T02:34:41;17.50;89.40
298;DHT22;133;49.626;9.680;2023-06-26T02:37:07;17.40;89.50
298;DHT22;133;49.626;9.680;2023-06-26T02:39:33;17.40;89.50
298;DHT22;133;49.626;9.680;2023-06-26T02:42:00;17.40;89.70
298;DHT22;133;49.626;9.680;2023-06-26T02:44:25;17.40;89.60
298;DHT22;133;49.626;9.680;2023-06-26T02:46:51;17.30;89.70
298;DHT22;133;49.626;9.680;2023-06-26T02:49:16;17.30;89.90
298;DHT22;133;49.626;9.680;2023-06-26T02:51:42;17.20;90.20
298;DHT22;133;49.626;9.680;2023-06-26T02:54:08;17.20;89.90
298;DHT22;133;49.626;9.680;2023-06-26T02:56:33;17.10;90.30
298;DHT22;133;49.626;9.680;2023-06-26T02:58:59;17.10;90.60
298;DHT22;133;49.626;9.680;2023-06-26T03:01:25;17.00;90.80
298;DHT22;133;49.626;9.680;2023-06-26T03:03:51;17.00;91.00
298;DHT22;133;49.626;9.680;2023-06-26T03:06:17;17.00;90.70
298;DHT22;133;49.626;9.680;2023-06-26T03:08:42;17.00;90.70
298;DHT22;133;49.626;9.680;2023-06-26T03:11:09;17.00;90.90
298;DHT22;133;49.626;9.680;2023-06-26T03:13:36;17.00;91.20
298;DHT22;133;49.626;9.680;2023-06-26T03:16:02;17.00;91.10
298;DHT22;133;49.626;9.680;2023-06-26T03:18:28;16.90;91.20
298;DHT22;133;49.626;9.680;2023-06-26T03:20:54;16.90;91.20
298;DHT22;133;49.626;9.680;2023-06-26T03:23:20;16.90;90.80
298;DHT22;133;49.626;9.680;2023-06-26T03:25:47;16.90;90.80
298;DHT22;133;49.626;9.680;2023-06-26T03:28:12;16.90;90.90
298;DHT22;133;49.626;9.680;2023-06-26T03:30:38;16.80;91.10
298;DHT22;133;49.626;9.680;2023-06-26T03:33:04;16.80;90.90
298;DHT22;133;49.626;9.680;2023-06-26T03:35:30;16.70;91.20
298;DHT22;133;49.626;9.680;2023-06-26T03:37:56;16.70;91.20
298;DHT22;133;49.626;9.680;2023-06-26T03:40:22;16.70;91.40
298;DHT22;133;49.626;9.680;2023-06-26T03:42:47;16.70;91.50
298;DHT22;133;49.626;9.680;2023-06-26T03:45:13;16.70;92.10
298;DHT22;133;49.626;9.680;2023-06-26T03:47:38;16.80;91.90
298;DHT22;133;49.626;9.680;2023-06-26T03:50:04;16.80;91.60
298;DHT22;133;49.626;9.680;2023-06-26T03:52:30;16.70;91.70
298;DHT22;133;49.626;9.680;2023-06-26T03:54:57;16.70;92.10
298;DHT22;133;49.626;9.680;2023-06-26T03:57:23;16.70;91.80
298;DHT22;133;49.626;9.680;2023-06-26T03:59:49;16.70;91.80
298;DHT22;133;49.626;9.680;2023-06-26T04:02:15;16.70;91.70
298;DHT22;133;49.626;9.680;2023-06-26T04:04:41;16.70;91.70
298;DHT22;133;49.626;9.680;2023-06-26T04:07:06;16.70;91.90
298;DHT22;133;49.626;9.680;2023-06-26T04:09:32;16.60;91.70
298;DHT22;133;49.626;9.680;2023-06-26T04:11:58;16.70;91.90
298;DHT22;133;49.626;9.680;2023-06-26T04:14:23;16.70;91.80
298;DHT22;133;49.626;9.680;2023-06-26T04:16:49;16.70;91.70
298;DHT22;133;49.626;9.680;2023-06-26T04:19:15;16.70;91.50
298;DHT22;133;49.626;9.680;2023-06-26T04:21:40;16.70;91.60
298;DHT22;133;49.626;9.680;2023-06-26T04:24:06;16.80;91.50
298;DHT22;133;49.626;9.680;2023-06-26T04:26:32;16.80;91.40
298;DHT22;133;49.626;9.680;2023-06-26T04:28:58;16.80;91.60
298;DHT22;133;49.626;9.680;2023-06-26T04:31:24;16.80;92.00
298;DHT22;133;49.626;9.680;2023-06-26T04:33:50;16.80;91.80
298;DHT22;133;49.626;9.680;2023-06-26T04:36:17;16.90;91.50
298;DHT22;133;49.626;9.680;2023-06-26T04:38:43;16.80;91.20
298;DHT22;133;49.626;9.680;2023-06-26T04:41:08;16.90;90.90
298;DHT22;133;49.626;9.680;2023-06-26T04:43:34;16.90;91.00
298;DHT22;133;49.626;9.680;2023-06-26T04:46:00;16.90;90.70
298;DHT22;133;49.626;9.680;2023-06-26T04:48:25;17.00;90.30
298;DHT22;133;49.626;9.680;2023-06-26T04:50:56;17.00;90.40
298;DHT22;133;49.626;9.680;2023-06-26T04:53:22;17.00;90.10
298;DHT22;133;49.626;9.680;2023-06-26T04:55:49;17.00;90.20
298;DHT22;133;49.626;9.680;2023-06-26T04:58:15;16.90;90.80
298;DHT22;133;49.626;9.680;2023-06-26T05:00:41;16.90;90.70
298;DHT22;133;49.626;9.680;2023-06-26T05:03:09;17.00;90.50
298;DHT22;133;49.626;9.680;2023-06-26T05:05:34;17.00;90.30
298;DHT22;133;49.626;9.680;2023-06-26T05:08:16;17.10;90.40
298;DHT22;133;49.626;9.680;2023-06-26T05:10:42;17.10;90.20
298;DHT22;133;49.626;9.680;2023-06-26T05:13:08;17.10;90.30
298;DHT22;133;49.626;9.680;2023-06-26T05:15:34;17.30;90.30
298;DHT22;133;49.626;9.680;2023-06-26T05:17:59;17.30;89.90
298;DHT22;133;49.626;9.680;2023-06-26T05:20:25;17.30;89.50
298;DHT22;133;49.626;9.680;2023-06-26T05:22:50;17.40;89.50
298;DHT22;133;49.626;9.680;2023-06-26T05:25:18;17.50;89.30
298;DHT22;133;49.626;9.680;2023-06-26T05:27:47;17.50;89.00
298;DHT22;133;49.626;9.680;2023-06-26T05:30:13;17.60;88.80
298;DHT22;133;49.626;9.680;2023-06-26T05:32:40;17.60;89.10
298;DHT22;133;49.626;9.680;2023-06-26T05:35:06;17.70;89.00
298;DHT22;133;49.626;9.680;2023-06-26T05:37:34;17.70;88.90
298;DHT22;133;49.626;9.680;2023-06-26T05:40:01;17.80;88.70
298;DHT22;133;49.626;9.680;2023-06-26T05:42:29;17.90;88.60
298;DHT22;133;49.626;9.680;2023-06-26T05:44:56;18.00;88.60
298;DHT22;133;49.626;9.680;2023-06-26T05:47:21;18.10;88.60
298;DHT22;133;49.626;9.680;2023-06-26T05:49:47;18.20;88.40
298;DHT22;133;49.626;9.680;2023-06-26T05:52:13;18.30;88.20
298;DHT22;133;49.626;9.680;2023-06-26T05:54:39;18.40;88.00
298;DHT22;133;49.626;9.680;2023-06-26T05:57:05;18.50;87.90
298;DHT22;133;49.626;9.680;2023-06-26T05:59:34;18.60;87.60
298;DHT22;133;49.626;9.680;2023-06-26T06:02:02;18.60;87.40
298;DHT22;133;49.626;9.680;2023-06-26T06:04:27;18.70;87.20
298;DHT22;133;49.626;9.680;2023-06-26T06:06:53;18.80;86.80
298;DHT22;133;49.626;9.680;2023-06-26T06:09:18;18.90;86.50
298;DHT22;133;49.626;9.680;2023-06-26T06:11:44;18.90;86.00
298;DHT22;133;49.626;9.680;2023-06-26T06:14:09;19.00;85.80
298;DHT22;133;49.626;9.680;2023-06-26T06:16:35;19.10;85.60
298;DHT22;133;49.626;9.680;2023-06-26T06:19:01;19.10;85.50
298;DHT22;133;49.626;9.680;2023-06-26T06:21:28;19.20;85.40
298;DHT22;133;49.626;9.680;2023-06-26T06:23:54;19.30;85.20
298;DHT22;133;49.626;9.680;2023-06-26T06:26:20;19.30;84.90
298;DHT22;133;49.626;9.680;2023-06-26T06:28:45;19.40;84.80
298;DHT22;133;49.626;9.680;2023-06-26T06:31:11;19.50;84.70
298;DHT22;133;49.626;9.680;2023-06-26T06:33:36;19.50;84.60
298;DHT22;133;49.626;9.680;2023-06-26T06:36:02;19.60;84.60
298;DHT22;133;49.626;9.680;2023-06-26T06:38:28;19.70;84.80
298;DHT22;133;49.626;9.680;2023-06-26T06:40:53;19.80;84.10
298;DHT22;133;49.626;9.680;2023-06-26T06:43:19;19.90;83.70
298;DHT22;133;49.626;9.680;2023-06-26T06:45:45;20.00;83.20
298;DHT22;133;49.626;9.680;2023-06-26T06:48:10;20.00;82.50
298;DHT22;133;49.626;9.680;2023-06-26T06:50:36;20.10;81.80
298;DHT22;133;49.626;9.680;2023-06-26T06:53:02;20.20;81.40
298;DHT22;133;49.626;9.680;2023-06-26T06:55:27;20.20;81.00
298;DHT22;133;49.626;9.680;2023-06-26T06:57:53;20.30;80.80
298;DHT22;133;49.626;9.680;2023-06-26T07:00:19;20.50;80.80
298;DHT22;133;49.626;9.680;2023-06-26T07:02:45;20.60;80.50
298;DHT22;133;49.626;9.680;2023-06-26T07:05:12;20.70;80.60
298;DHT22;133;49.626;9.680;2023-06-26T07:07:38;20.90;80.10
298;DHT22;133;49.626;9.680;2023-06-26T07:10:06;21.00;79.90
298;DHT22;133;49.626;9.680;2023-06-26T07:12:33;21.10;79.40
298;DHT22;133;49.626;9.680;2023-06-26T07:15:00;21.20;79.30
298;DHT22;133;49.626;9.680;2023-06-26T07:17:26;21.40;79.20
298;DHT22;133;49.626;9.680;2023-06-26T07:19:51;21.60;78.60
298;DHT22;133;49.626;9.680;2023-06-26T07:22:17;21.70;78.30
298;DHT22;133;49.626;9.680;2023-06-26T07:24:48;21.80;77.60
298;DHT22;133;49.626;9.680;2023-06-26T07:27:15;21.90;77.60
298;DHT22;133;49.626;9.680;2023-06-26T07:29:42;22.10;77.60
298;DHT22;133;49.626;9.680;2023-06-26T07:32:07;22.30;77.50
298;DHT22;133;49.626;9.680;2023-06-26T07:34:33;22.40;76.90
298;DHT22;133;49.626;9.680;2023-06-26T07:36:59;22.60;76.50
298;DHT22;133;49.626;9.680;2023-06-26T07:39:25;22.80;74.40
298;DHT22;133;49.626;9.680;2023-06-26T07:41:51;22.90;74.10
298;DHT22;133;49.626;9.680;2023-06-26T07:44:16;23.10;74.30
298;DHT22;133;49.626;9.680;2023-06-26T07:46:42;23.20;74.10
298;DHT22;133;49.626;9.680;2023-06-26T07:49:08;23.40;73.80
298;DHT22;133;49.626;9.680;2023-06-26T07:51:33;23.50;73.10
298;DHT22;133;49.626;9.680;2023-06-26T07:53:59;23.70;72.20
298;DHT22;133;49.626;9.680;2023-06-26T07:56:25;23.80;72.10
298;DHT22;133;49.626;9.680;2023-06-26T07:58:51;23.90;71.10
298;DHT22;133;49.626;9.680;2023-06-26T08:01:16;24.10;70.80
298;DHT22;133;49.626;9.680;2023-06-26T08:03:42;24.20;71.00
298;DHT22;133;49.626;9.680;2023-06-26T08:06:08;24.40;69.90
298;DHT22;133;49.626;9.680;2023-06-26T08:08:34;24.60;69.80
298;DHT22;133;49.626;9.680;2023-06-26T08:10:59;24.80;68.80
298;DHT22;133;49.626;9.680;2023-06-26T08:13:25;24.90;67.70
298;DHT22;133;49.626;9.680;2023-06-26T08:15:51;25.00;67.50
298;DHT22;133;49.626;9.680;2023-06-26T08:18:18;25.10;66.50
298;DHT22;133;49.626;9.680;2023-06-26T08:20:43;25.30;66.10
298;DHT22;133;49.626;9.680;2023-06-26T08:23:09;25.30;64.80
298;DHT22;133;49.626;9.680;2023-06-26T08:25:35;25.50;64.60
298;DHT22;133;49.626;9.680;2023-06-26T08:28:00;25.60;64.00
298;DHT22;133;49.626;9.680;2023-06-26T08:30:26;25.70;63.50
298;DHT22;133;49.626;9.680;2023-06-26T08:32:55;25.90;63.60
298;DHT22;133;49.626;9.680;2023-06-26T08:35:20;26.10;62.80
298;DHT22;133;49.626;9.680;2023-06-26T08:37:46;26.30;61.20
298;DHT22;133;49.626;9.680;2023-06-26T08:40:12;26.50;61.30
298;DHT22;133;49.626;9.680;2023-06-26T08:42:41;26.70;60.20
298;DHT22;133;49.626;9.680;2023-06-26T08:45:07;27.10;59.60
298;DHT22;133;49.626;9.680;2023-06-26T08:47:34;27.80;57.60
298;DHT22;133;49.626;9.680;2023-06-26T08:50:08;28.80;54.50
298;DHT22;133;49.626;9.680;2023-06-26T08:53:04;30.10;53.90
298;DHT22;133;49.626;9.680;2023-06-26T08:55:32;32.20;49.80
298;DHT22;133;49.626;9.680;2023-06-26T08:57:59;34.10;47.20
298;DHT22;133;49.626;9.680;2023-06-26T09:00:25;35.80;44.10
298;DHT22;133;49.626;9.680;2023-06-26T09:02:51;36.90;41.50
298;DHT22;133;49.626;9.680;2023-06-26T09:05:17;36.60;41.50
298;DHT22;133;49.626;9.680;2023-06-26T09:07:44;36.50;40.40
298;DHT22;133;49.626;9.680;2023-06-26T09:10:19;36.60;40.20
298;DHT22;133;49.626;9.680;2023-06-26T09:12:48;36.40;40.90
298;DHT22;133;49.626;9.680;2023-06-26T09:15:15;37.00;40.00
298;DHT22;133;49.626;9.680;2023-06-26T09:17:42;37.80;39.30
298;DHT22;133;49.626;9.680;2023-06-26T09:20:08;37.20;39.40
298;DHT22;133;49.626;9.680;2023-06-26T09:22:41;37.10;40.10
298;DHT22;133;49.626;9.680;2023-06-26T09:25:07;38.20;39.20
298;DHT22;133;49.626;9.680;2023-06-26T09:27:34;39.10;38.60
298;DHT22;133;49.626;9.680;2023-06-26T09:30:02;39.80;37.70
298;DHT22;133;49.626;9.680;2023-06-26T09:32:28;40.30;37.60
298;DHT22;133;49.626;9.680;2023-06-26T09:34:54;38.30;39.10
298;DHT22;133;49.626;9.680;2023-06-26T09:37:26;37.20;39.70
298;DHT22;133;49.626;9.680;2023-06-26T09:39:52;38.20;39.40
298;DHT22;133;49.626;9.680;2023-06-26T09:42:19;39.60;37.70
298;DHT22;133;49.626;9.680;2023-06-26T09:44:45;41.00;36.90
298;DHT22;133;49.626;9.680;2023-06-26T09:47:11;41.50;35.50
298;DHT22;133;49.626;9.680;2023-06-26T09:49:41;42.00;34.90
298;DHT22;133;49.626;9.680;2023-06-26T09:52:08;42.30;34.70
298;DHT22;133;49.626;9.680;2023-06-26T09:54:34;43.10;34.80
298;DHT22;133;49.626;9.680;2023-06-26T09:57:08;43.70;34.10
298;DHT22;133;49.626;9.680;2023-06-26T09:59:34;43.80;34.10
298;DHT22;133;49.626;9.680;2023-06-26T10:02:00;43.50;34.10
298;DHT22;133;49.626;9.680;2023-06-26T10:04:26;42.40;34.60
298;DHT22;133;49.626;9.680;2023-06-26T10:06:55;41.70;35.00
298;DHT22;133;49.626;9.680;2023-06-26T10:09:23;41.60;35.50
298;DHT22;133;49.626;9.680;2023-06-26T10:14:34;39.20;37.80
298;DHT22;133;49.626;9.680;2023-06-26T10:17:11;39.30;38.20
298;DHT22;133;49.626;9.680;2023-06-26T10:19:43;39.40;38.30
298;DHT22;133;49.626;9.680;2023-06-26T10:22:12;38.40;39.10
298;DHT22;133;49.626;9.680;2023-06-26T10:24:40;38.50;39.50
298;DHT22;133;49.626;9.680;2023-06-26T10:27:21;37.80;39.80
298;DHT22;133;49.626;9.680;2023-06-26T10:29:54;38.30;39.70
298;DHT22;133;49.626;9.680;2023-06-26T10:32:24;37.50;39.90
298;DHT22;133;49.626;9.680;2023-06-26T10:34:51;36.40;42.00
298;DHT22;133;49.626;9.680;2023-06-26T10:37:20;36.50;41.60
298;DHT22;133;49.626;9.680;2023-06-26T10:39:52;35.90;42.50
298;DHT22;133;49.626;9.680;2023-06-26T10:42:35;35.70;42.80
298;DHT22;133;49.626;9.680;2023-06-26T10:45:29;36.00;42.30
298;DHT22;133;49.626;9.680;2023-06-26T10:47:57;36.90;41.30
298;DHT22;133;49.626;9.680;2023-06-26T10:50:31;37.50;40.60
298;DHT22;133;49.626;9.680;2023-06-26T10:53:21;37.30;41.40
298;DHT22;133;49.626;9.680;2023-06-26T10:59:32;36.50;40.40
298;DHT22;133;49.626;9.680;2023-06-26T11:02:02;35.70;41.80
298;DHT22;133;49.626;9.680;2023-06-26T11:07:22;36.10;42.90
298;DHT22;133;49.626;9.680;2023-06-26T11:12:44;35.10;43.00
298;DHT22;133;49.626;9.680;2023-06-26T11:15:18;35.40;43.60
298;DHT22;133;49.626;9.680;2023-06-26T11:17:45;35.50;43.40
298;DHT22;133;49.626;9.680;2023-06-26T11:20:22;35.90;42.60
298;DHT22;133;49.626;9.680;2023-06-26T11:22:52;36.20;42.60
298;DHT22;133;49.626;9.680;2023-06-26T11:25:19;35.70;43.50
298;DHT22;133;49.626;9.680;2023-06-26T11:27:45;34.80;43.80
298;DHT22;133;49.626;9.680;2023-06-26T11:30:23;34.40;44.90
298;DHT22;133;49.626;9.680;2023-06-26T11:32:49;34.40;45.00
298;DHT22;133;49.626;9.680;2023-06-26T11:35:26;34.80;43.80
298;DHT22;133;49.626;9.680;2023-06-26T11:38:01;34.50;44.70
298;DHT22;133;49.626;9.680;2023-06-26T11:40:32;34.90;44.60
298;DHT22;133;49.626;9.680;2023-06-26T11:43:00;35.40;44.20
298;DHT22;133;49.626;9.680;2023-06-26T11:45:30;35.00;45.20
298;DHT22;133;49.626;9.680;2023-06-26T11:47:57;35.10;44.90
298;DHT22;133;49.626;9.680;2023-06-26T11:50:27;34.50;44.90
298;DHT22;133;49.626;9.680;2023-06-26T11:53:16;33.70;46.00
298;DHT22;133;49.626;9.680;2023-06-26T11:55:42;33.50;46.60
298;DHT22;133;49.626;9.680;2023-06-26T11:58:17;33.30;46.80
298;DHT22;133;49.626;9.680;2023-06-26T12:00:43;32.80;46.70
298;DHT22;133;49.626;9.680;2023-06-26T12:03:12;32.30;47.90
298;DHT22;133;49.626;9.680;2023-06-26T12:05:37;32.30;48.20
298;DHT22;133;49.626;9.680;2023-06-26T12:08:06;32.30;48.10
298;DHT22;133;49.626;9.680;2023-06-26T12:17:59;33.70;47.60
298;DHT22;133;49.626;9.680;2023-06-26T12:20:33;33.70;46.80
298;DHT22;133;49.626;9.680;2023-06-26T12:29:33;34.50;46.20
298;DHT22;133;49.626;9.680;2023-06-26T12:32:00;34.40;46.40
298;DHT22;133;49.626;9.680;2023-06-26T12:34:32;34.00;46.60
298;DHT22;133;49.626;9.680;2023-06-26T12:37:03;34.40;46.70
298;DHT22;133;49.626;9.680;2023-06-26T12:39:29;33.70;46.60
298;DHT22;133;49.626;9.680;2023-06-26T12:42:01;33.20;48.10
298;DHT22;133;49.626;9.680;2023-06-26T12:44:28;32.70;48.50
298;DHT22;133;49.626;9.680;2023-06-26T12:47:00;33.50;48.50
298;DHT22;133;49.626;9.680;2023-06-26T12:49:36;33.90;47.10
298;DHT22;133;49.626;9.680;2023-06-26T12:52:08;33.40;47.90
298;DHT22;133;49.626;9.680;2023-06-26T12:54:35;33.10;48.10
298;DHT22;133;49.626;9.680;2023-06-26T12:57:01;32.90;49.00
298;DHT22;133;49.626;9.680;2023-06-26T12:59:26;32.40;50.00
298;DHT22;133;49.626;9.680;2023-06-26T13:01:52;32.10;50.80
298;DHT22;133;49.626;9.680;2023-06-26T13:04:18;31.90;51.50
298;DHT22;133;49.626;9.680;2023-06-26T13:06:44;31.60;52.10
298;DHT22;133;49.626;9.680;2023-06-26T13:09:10;31.60;52.20
298;DHT22;133;49.626;9.680;2023-06-26T13:11:37;31.70;52.40
298;DHT22;133;49.626;9.680;2023-06-26T13:14:03;31.80;52.20
298;DHT22;133;49.626;9.680;2023-06-26T13:16:29;32.10;52.30
298;DHT22;133;49.626;9.680;2023-06-26T13:18:57;32.20;51.30
298;DHT22;133;49.626;9.680;2023-06-26T13:21:23;32.60;51.10
298;DHT22;133;49.626;9.680;2023-06-26T13:23:49;32.90;50.80
298;DHT22;133;49.626;9.680;2023-06-26T13:26:15;33.20;49.50
298;DHT22;133;49.626;9.680;2023-06-26T13:28:41;33.00;49.90
298;DHT22;133;49.626;9.680;2023-06-26T13:31:07;33.30;49.60
298;DHT22;133;49.626;9.680;2023-06-26T13:33:33;33.00;50.10
298;DHT22;133;49.626;9.680;2023-06-26T13:35:58;33.10;49.40
298;DHT22;133;49.626;9.680;2023-06-26T13:38:25;32.90;49.70
298;DHT22;133;49.626;9.680;2023-06-26T13:40:55;32.80;49.70
298;DHT22;133;49.626;9.680;2023-06-26T13:43:25;32.20;50.20
298;DHT22;133;49.626;9.680;2023-06-26T13:45:51;32.00;51.10
298;DHT22;133;49.626;9.680;2023-06-26T13:48:16;32.20;50.80
298;DHT22;133;49.626;9.680;2023-06-26T13:50:42;32.50;51.10
298;DHT22;133;49.626;9.680;2023-06-26T13:53:08;32.40;50.10
298;DHT22;133;49.626;9.680;2023-06-26T13:55:34;32.20;50.40
298;DHT22;133;49.626;9.680;2023-06-26T13:58:01;32.20;50.70
298;DHT22;133;49.626;9.680;2023-06-26T14:00:31;32.40;50.10
298;DHT22;133;49.626;9.680;2023-06-26T14:02:59;32.30;50.40
298;DHT22;133;49.626;9.680;2023-06-26T14:05:25;32.30;50.20
298;DHT22;133;49.626;9.680;2023-06-26T14:07:51;32.30;50.10
298;DHT22;133;49.626;9.680;2023-06-26T14:10:17;32.20;50.00
298;DHT22;133;49.626;9.680;2023-06-26T14:12:42;32.10;49.90
298;DHT22;133;49.626;9.680;2023-06-26T14:15:08;32.10;49.80
298;DHT22;133;49.626;9.680;2023-06-26T14:17:34;31.80;49.90
298;DHT22;133;49.626;9.680;2023-06-26T14:20:00;31.30;51.10
298;DHT22;133;49.626;9.680;2023-06-26T14:22:25;31.20;51.30
298;DHT22;133;49.626;9.680;2023-06-26T14:24:51;31.20;51.80
298;DHT22;133;49.626;9.680;2023-06-26T14:27:17;31.20;52.20
298;DHT22;133;49.626;9.680;2023-06-26T14:29:45;31.20;51.80
298;DHT22;133;49.626;9.680;2023-06-26T14:32:11;31.40;52.40
298;DHT22;133;49.626;9.680;2023-06-26T14:34:37;31.30;52.00
298;DHT22;133;49.626;9.680;2023-06-26T14:37:03;31.60;51.40
298;DHT22;133;49.626;9.680;2023-06-26T14:39:29;31.70;50.60
298;DHT22;133;49.626;9.680;2023-06-26T14:41:57;31.90;50.40
298;DHT22;133;49.626;9.680;2023-06-26T14:44:23;31.70;50.80
298;DHT22;133;49.626;9.680;2023-06-26T14:46:49;31.50;51.20
298;DHT22;133;49.626;9.680;2023-06-26T14:49:14;31.30;52.10
298;DHT22;133;49.626;9.680;2023-06-26T14:51:40;31.20;52.00
298;DHT22;133;49.626;9.680;2023-06-26T14:54:06;31.10;52.60
298;DHT22;133;49.626;9.680;2023-06-26T14:56:32;31.00;52.60
298;DHT22;133;49.626;9.680;2023-06-26T14:58:58;30.70;51.80
298;DHT22;133;49.626;9.680;2023-06-26T15:01:23;30.50;51.90
298;DHT22;133;49.626;9.680;2023-06-26T15:03:52;30.30;53.80
298;DHT22;133;49.626;9.680;2023-06-26T15:06:20;30.30;52.80
298;DHT22;133;49.626;9.680;2023-06-26T15:08:45;30.30;52.40
298;DHT22;133;49.626;9.680;2023-06-26T15:11:11;30.20;52.20
298;DHT22;133;49.626;9.680;2023-06-26T15:13:37;30.10;50.70
298;DHT22;133;49.626;9.680;2023-06-26T15:16:03;29.90;50.80
298;DHT22;133;49.626;9.680;2023-06-26T15:18:29;29.90;50.50
298;DHT22;133;49.626;9.680;2023-06-26T15:20:54;29.80;49.70
298;DHT22;133;49.626;9.680;2023-06-26T15:23:20;29.70;50.30
298;DHT22;133;49.626;9.680;2023-06-26T15:25:46;29.80;49.80
298;DHT22;133;49.626;9.680;2023-06-26T15:28:12;29.80;50.40
298;DHT22;133;49.626;9.680;2023-06-26T15:30:37;29.70;50.90
298;DHT22;133;49.626;9.680;2023-06-26T15:33:03;29.70;50.60
298;DHT22;133;49.626;9.680;2023-06-26T15:35:30;29.70;49.20
298;DHT22;133;49.626;9.680;2023-06-26T15:37:57;29.50;50.50
298;DHT22;133;49.626;9.680;2023-06-26T15:40:22;29.60;54.50
298;DHT22;133;49.626;9.680;2023-06-26T15:42:50;29.50;55.90
298;DHT22;133;49.626;9.680;2023-06-26T15:45:16;29.60;56.60
298;DHT22;133;49.626;9.680;2023-06-26T15:47:47;29.70;56.40
298;DHT22;133;49.626;9.680;2023-06-26T15:50:13;29.80;56.40
298;DHT22;133;49.626;9.680;2023-06-26T15:52:38;29.80;56.80
298;DHT22;133;49.626;9.680;2023-06-26T15:55:05;29.70;57.10
298;DHT22;133;49.626;9.680;2023-06-26T15:57:31;29.70;58.00
298;DHT22;133;49.626;9.680;2023-06-26T15:59:58;29.60;57.30
298;DHT22;133;49.626;9.680;2023-06-26T16:02:24;29.60;57.50
298;DHT22;133;49.626;9.680;2023-06-26T16:04:50;29.50;57.80
298;DHT22;133;49.626;9.680;2023-06-26T16:07:15;29.60;57.30
298;DHT22;133;49.626;9.680;2023-06-26T16:09:41;29.40;55.10
298;DHT22;133;49.626;9.680;2023-06-26T16:12:07;29.20;55.20
298;DHT22;133;49.626;9.680;2023-06-26T16:14:33;29.10;56.50
298;DHT22;133;49.626;9.680;2023-06-26T16:16:58;29.00;56.10
298;DHT22;133;49.626;9.680;2023-06-26T16:19:25;28.90;55.90
298;DHT22;133;49.626;9.680;2023-06-26T16:21:54;28.80;56.50
298;DHT22;133;49.626;9.680;2023-06-26T16:24:20;28.80;56.40
298;DHT22;133;49.626;9.680;2023-06-26T16:26:45;28.70;56.60
298;DHT22;133;49.626;9.680;2023-06-26T16:29:11;28.60;57.20
298;DHT22;133;49.626;9.680;2023-06-26T16:31:37;28.60;56.80
298;DHT22;133;49.626;9.680;2023-06-26T16:34:02;28.70;57.10
298;DHT22;133;49.626;9.680;2023-06-26T16:36:28;28.60;56.80
298;DHT22;133;49.626;9.680;2023-06-26T16:38:54;28.60;57.00
298;DHT22;133;49.626;9.680;2023-06-26T16:41:20;28.80;56.20
298;DHT22;133;49.626;9.680;2023-06-26T16:43:46;28.90;56.80
298;DHT22;133;49.626;9.680;2023-06-26T16:46:12;29.10;56.10
298;DHT22;133;49.626;9.680;2023-06-26T16:48:38;29.10;56.40
298;DHT22;133;49.626;9.680;2023-06-26T16:51:05;29.10;56.20
298;DHT22;133;49.626;9.680;2023-06-26T16:53:31;29.10;55.90
298;DHT22;133;49.626;9.680;2023-06-26T16:55:56;28.80;56.40
298;DHT22;133;49.626;9.680;2023-06-26T16:58:22;28.70;56.70
298;DHT22;133;49.626;9.680;2023-06-26T17:00:48;28.50;57.30